Time;durP1;ratioP1;P1;durP2;ratioP2;P2;SDS_P1;SDS_P2;PMS_P1;PMS_P2;Temp;Humidity;BMP_temperature;BMP_pressure;BME280_temperature;BME280_humidity;BME280_pressure;Samples;Min_cycle;Max_cycle;Signal;HPM_P1;HPM_P2
2023/10/25 00:02:20;;;;;;;4.43;3.35;;;13.50;99.90;;;;;;5039113;28;20033;-83
2023/10/25 00:04:45;;;;;;;5.55;3.55;;;13.50;99.90;;;;;;5023482;28;20026;-82
2023/10/25 00:07:11;;;;;;;4.40;3.95;;;13.50;99.90;;;;;;5040678;28;20061;-82
2023/10/25 00:09:37;;;;;;;4.93;3.40;;;13.60;99.90;;;;;;5024887;28;20040;-82
2023/10/25 00:12:03;;;;;;;5.03;3.80;;;13.70;99.90;;;;;;5038724;28;20041;-82
2023/10/25 00:14:28;;;;;;;6.65;3.78;;;13.70;99.90;;;;;;5023425;28;20018;-83
2023/10/25 00:16:54;;;;;;;3.92;3.35;;;13.70;99.90;;;;;;5023653;28;20707;-82
2023/10/25 00:19:20;;;;;;;8.90;3.67;;;13.70;99.90;;;;;;5022849;28;20045;-80
2023/10/25 00:21:45;;;;;;;6.47;3.67;;;13.70;99.90;;;;;;5024770;28;20022;-80
2023/10/25 00:24:11;;;;;;;4.95;3.92;;;13.70;99.90;;;;;;5023680;28;20034;-81
2023/10/25 00:26:37;;;;;;;5.20;3.45;;;13.70;99.90;;;;;;5040055;28;20429;-81
2023/10/25 00:29:02;;;;;;;5.45;3.83;;;13.60;99.90;;;;;;5023113;28;20060;-81
2023/10/25 00:31:28;;;;;;;4.55;3.38;;;13.60;99.90;;;;;;5039567;28;20434;-80
2023/10/25 00:33:54;;;;;;;5.93;3.97;;;13.60;99.90;;;;;;5023031;28;20034;-83
2023/10/25 00:36:20;;;;;;;7.85;4.07;;;13.60;99.90;;;;;;5022799;28;20556;-81
2023/10/25 00:38:45;;;;;;;7.95;3.72;;;13.60;99.90;;;;;;5038233;28;20025;-80
2023/10/25 00:41:11;;;;;;;4.78;3.58;;;13.70;99.90;;;;;;5038791;28;20029;-81
2023/10/25 00:43:37;;;;;;;4.50;4.00;;;13.70;99.90;;;;;;5038796;28;20056;-81
2023/10/25 00:46:14;;;;;;;7.57;3.67;;;13.80;99.90;;;;;;5023822;28;20053;-79
2023/10/25 00:48:45;;;;;;;7.03;3.88;;;13.90;99.90;;;;;;5039506;28;20057;-79
2023/10/25 00:51:12;;;;;;;4.13;3.45;;;13.80;99.90;;;;;;5040366;28;20021;-80
2023/10/25 00:53:45;;;;;;;10.23;3.92;;;13.90;99.90;;;;;;5022835;28;20022;-82
2023/10/25 00:56:12;;;;;;;4.20;3.78;;;13.90;99.90;;;;;;5038537;28;20049;-82
2023/10/25 00:58:40;;;;;;;5.80;3.33;;;13.80;99.90;;;;;;5037558;28;20022;-84
2023/10/25 01:01:05;;;;;;;8.40;3.67;;;13.80;99.90;;;;;;5022138;28;20034;-82
2023/10/25 01:03:31;;;;;;;7.10;3.08;;;13.70;99.90;;;;;;5022104;28;20138;-83
2023/10/25 01:05:57;;;;;;;4.53;3.40;;;13.70;99.90;;;;;;5021498;28;20057;-83
2023/10/25 01:08:23;;;;;;;2.05;1.70;;;13.70;99.90;;;;;;5020412;28;20052;-80
2023/10/25 01:10:50;;;;;;;1.80;1.08;;;13.70;99.90;;;;;;5037330;28;20029;-80
2023/10/25 01:13:17;;;;;;;3.35;0.93;;;13.70;99.90;;;;;;5037174;28;20025;-80
2023/10/25 01:15:43;;;;;;;1.58;0.75;;;13.70;99.90;;;;;;5037095;28;20030;-80
2023/10/25 01:18:09;;;;;;;2.72;0.80;;;13.60;99.90;;;;;;5037793;28;20029;-79
2023/10/25 01:20:35;;;;;;;0.65;0.60;;;13.60;99.90;;;;;;5022886;28;20022;-82
2023/10/25 01:23:01;;;;;;;1.13;0.50;;;13.60;99.90;;;;;;5020847;28;20057;-80
2023/10/25 01:25:26;;;;;;;1.77;0.63;;;13.60;99.90;;;;;;5022501;28;20018;-82
2023/10/25 01:27:52;;;;;;;2.25;0.70;;;13.60;99.90;;;;;;5022267;28;20034;-81
2023/10/25 01:30:18;;;;;;;1.08;0.55;;;13.60;99.90;;;;;;5020868;28;20037;-82
2023/10/25 01:32:43;;;;;;;1.58;0.60;;;13.60;99.90;;;;;;5021772;28;20037;-82
2023/10/25 01:35:10;;;;;;;0.65;0.32;;;13.60;99.90;;;;;;5036175;28;20041;-80
2023/10/25 01:37:36;;;;;;;2.42;0.50;;;13.50;99.90;;;;;;5036530;28;20402;-80
2023/10/25 01:40:03;;;;;;;2.85;0.50;;;13.50;99.90;;;;;;5021502;28;20026;-80
2023/10/25 01:42:29;;;;;;;0.10;0.10;;;13.50;99.90;;;;;;5036528;28;20477;-79
2023/10/25 01:44:54;;;;;;;0.15;0.13;;;13.40;99.90;;;;;;5018215;28;20034;-82
2023/10/25 01:47:20;;;;;;;0.57;0.30;;;13.40;99.90;;;;;;5035481;28;20021;-81
2023/10/25 01:49:46;;;;;;;0.10;0.10;;;13.40;99.90;;;;;;5020351;28;20052;-81
2023/10/25 01:52:11;;;;;;;0.52;0.20;;;13.40;99.90;;;;;;5019376;28;20030;-81
2023/10/25 01:54:37;;;;;;;0.32;0.13;;;13.30;99.90;;;;;;5020015;28;20040;-81
2023/10/25 01:57:03;;;;;;;3.40;0.43;;;13.30;99.90;;;;;;5034741;28;20482;-81
2023/10/25 01:59:29;;;;;;;0.35;0.35;;;13.30;99.90;;;;;;5019921;28;20026;-81
2023/10/25 02:01:54;;;;;;;0.75;0.30;;;13.20;99.90;;;;;;5035763;28;20030;-81
2023/10/25 02:04:20;;;;;;;1.23;0.70;;;13.20;99.90;;;;;;5018968;28;20048;-83
2023/10/25 02:06:50;;;;;;;3.60;0.40;;;13.20;99.90;;;;;;5019133;28;20018;-81
2023/10/25 02:09:16;;;;;;;1.30;0.50;;;13.20;99.90;;;;;;5036014;28;20030;-81
2023/10/25 02:11:41;;;;;;;0.40;0.40;;;13.20;99.90;;;;;;5038061;28;20057;-82
2023/10/25 02:14:07;;;;;;;0.82;0.55;;;13.10;99.90;;;;;;5040845;28;20030;-80
2023/10/25 02:16:33;;;;;;;0.30;0.28;;;13.10;99.90;;;;;;5040888;28;20029;-81
2023/10/25 02:18:59;;;;;;;3.20;0.60;;;13.10;99.90;;;;;;5026073;28;20033;-82
2023/10/25 02:21:25;;;;;;;2.40;0.40;;;13.10;99.90;;;;;;5040732;28;20029;-79
2023/10/25 02:23:53;;;;;;;0.32;0.32;;;13.10;99.90;;;;;;5021134;28;20038;-80
2023/10/25 02:26:19;;;;;;;1.25;0.70;;;13.10;99.90;;;;;;5022853;28;20022;-84
2023/10/25 02:28:44;;;;;;;1.10;0.30;;;13.10;99.90;;;;;;5023086;28;20026;-82
2023/10/25 02:31:10;;;;;;;0.70;0.50;;;13.10;99.90;;;;;;5020864;28;20026;-80
2023/10/25 02:33:36;;;;;;;3.03;0.60;;;13.10;99.90;;;;;;5020898;28;20024;-82
2023/10/25 02:36:02;;;;;;;3.72;0.75;;;13.10;99.90;;;;;;5022336;28;20018;-82
2023/10/25 02:38:27;;;;;;;3.60;0.90;;;13.10;99.90;;;;;;5037899;28;20037;-80
2023/10/25 02:40:53;;;;;;;0.80;0.50;;;13.10;99.90;;;;;;5020079;28;20034;-81
2023/10/25 02:43:19;;;;;;;0.93;0.70;;;13.00;99.90;;;;;;5019872;28;20072;-82
2023/10/25 02:45:44;;;;;;;1.75;0.32;;;13.00;99.90;;;;;;5036561;28;20105;-82
2023/10/25 02:48:16;;;;;;;1.45;0.80;;;13.00;99.90;;;;;;5037490;28;20094;-79
2023/10/25 02:50:41;;;;;;;0.95;0.82;;;13.00;99.90;;;;;;5020817;28;20094;-81
2023/10/25 02:53:07;;;;;;;1.13;0.82;;;12.90;99.90;;;;;;5036027;28;20053;-82
2023/10/25 02:55:33;;;;;;;0.95;0.50;;;12.90;99.90;;;;;;5020358;28;20038;-82
2023/10/25 02:57:59;;;;;;;5.38;1.10;;;12.80;99.90;;;;;;5019969;28;20026;-81
2023/10/25 03:00:24;;;;;;;0.93;0.57;;;12.80;99.90;;;;;;5020157;28;20509;-81
2023/10/25 03:02:50;;;;;;;2.67;0.70;;;12.80;99.90;;;;;;5034623;28;20486;-78
2023/10/25 03:05:16;;;;;;;2.83;0.93;;;12.80;99.90;;;;;;5018608;28;20022;-81
2023/10/25 03:07:41;;;;;;;0.60;0.60;;;12.80;99.90;;;;;;5019651;28;20478;-81
2023/10/25 03:10:07;;;;;;;4.18;0.93;;;12.80;99.90;;;;;;5035204;28;20509;-81
2023/10/25 03:12:33;;;;;;;1.33;0.52;;;12.70;99.90;;;;;;5017191;28;20041;-81
2023/10/25 03:15:00;;;;;;;4.38;0.80;;;12.80;99.90;;;;;;5018531;28;20022;-81
2023/10/25 03:17:28;;;;;;;0.40;0.40;;;12.70;99.90;;;;;;5034714;28;20099;-79
2023/10/25 03:19:54;;;;;;;2.28;0.50;;;12.70;99.90;;;;;;5019818;28;20029;-81
2023/10/25 03:22:19;;;;;;;2.72;0.68;;;12.70;99.90;;;;;;5034002;28;20044;-79
2023/10/25 03:24:45;;;;;;;0.73;0.47;;;12.80;99.90;;;;;;5018860;28;20034;-79
2023/10/25 03:27:11;;;;;;;3.42;0.60;;;12.70;99.90;;;;;;5019395;28;20057;-80
2023/10/25 03:29:37;;;;;;;1.20;1.10;;;12.70;99.90;;;;;;5017171;28;20120;-78
2023/10/25 03:32:02;;;;;;;2.53;0.73;;;12.80;99.90;;;;;;5034451;28;20030;-80
2023/10/25 03:34:29;;;;;;;2.47;0.80;;;12.80;99.90;;;;;;5041469;28;20040;-82
2023/10/25 03:36:54;;;;;;;5.07;0.90;;;12.80;99.90;;;;;;5037969;28;20060;-78
2023/10/25 03:39:20;;;;;;;2.22;0.80;;;12.70;99.90;;;;;;5038273;28;20083;-80
2023/10/25 03:41:45;;;;;;;3.90;0.77;;;12.80;99.90;;;;;;5038905;28;20025;-81
2023/10/25 03:44:12;;;;;;;7.65;0.60;;;12.70;99.90;;;;;;5036541;28;20389;-80
2023/10/25 03:46:38;;;;;;;1.30;0.70;;;12.70;99.90;;;;;;5035608;28;20520;-80
2023/10/25 03:49:04;;;;;;;1.48;0.68;;;12.70;99.90;;;;;;5040703;28;20057;-80
2023/10/25 03:51:30;;;;;;;1.55;0.77;;;13.30;99.90;;;;;;5041324;28;20037;-82
2023/10/25 03:53:56;;;;;;;2.42;0.65;;;13.00;99.90;;;;;;5026534;28;20048;-83
2023/10/25 03:56:22;;;;;;;2.63;0.52;;;13.00;99.90;;;;;;5024377;28;20405;-81
2023/10/25 03:58:48;;;;;;;0.85;0.70;;;12.90;99.90;;;;;;5038183;28;20100;-79
2023/10/25 04:01:13;;;;;;;3.08;0.75;;;12.80;99.90;;;;;;5038834;28;20519;-83
2023/10/25 04:03:39;;;;;;;1.30;0.63;;;12.90;99.90;;;;;;5040307;28;20053;-79
2023/10/25 04:06:06;;;;;;;1.40;1.30;;;12.80;99.90;;;;;;5040982;28;20021;-80
2023/10/25 04:08:32;;;;;;;4.03;1.00;;;12.80;99.90;;;;;;5041214;28;20026;-81
2023/10/25 04:10:58;;;;;;;3.63;1.38;;;12.70;99.90;;;;;;5040241;28;20032;-81
2023/10/25 04:13:24;;;;;;;2.22;1.08;;;12.70;99.90;;;;;;5039434;28;20112;-79
2023/10/25 04:16:00;;;;;;;2.55;1.40;;;12.70;99.90;;;;;;5039112;28;20032;-81
2023/10/25 04:18:28;;;;;;;0.82;0.82;;;12.70;99.90;;;;;;5040595;28;20036;-78
2023/10/25 04:20:55;;;;;;;2.60;1.30;;;12.70;99.90;;;;;;5040908;28;20034;-81
2023/10/25 04:23:21;;;;;;;1.98;1.40;;;12.70;99.90;;;;;;5038175;28;20030;-79
2023/10/25 04:25:47;;;;;;;1.45;1.20;;;12.70;99.90;;;;;;5039558;28;20052;-79
2023/10/25 04:28:13;;;;;;;3.72;2.10;;;12.70;99.90;;;;;;5039332;28;20044;-79
2023/10/25 04:30:39;;;;;;;8.32;1.50;;;12.80;99.90;;;;;;5042167;28;20183;-80
2023/10/25 04:33:06;;;;;;;1.95;1.38;;;12.70;99.90;;;;;;5033103;28;20060;-77
2023/10/25 04:35:32;;;;;;;1.92;1.17;;;12.80;99.90;;;;;;5018205;28;20026;-78
2023/10/25 04:37:57;;;;;;;2.47;1.35;;;12.80;99.90;;;;;;5019144;28;20033;-76
2023/10/25 04:40:23;;;;;;;2.40;1.52;;;12.70;99.90;;;;;;5019160;28;20125;-81
2023/10/25 04:42:53;;;;;;;1.67;1.48;;;12.70;99.90;;;;;;5019103;28;20022;-80
2023/10/25 04:45:19;;;;;;;4.82;1.45;;;12.80;99.90;;;;;;5018593;28;20656;-79
2023/10/25 04:47:45;;;;;;;3.90;1.80;;;12.80;99.90;;;;;;5019903;28;20462;-81
2023/10/25 04:50:11;;;;;;;3.05;1.52;;;12.80;99.90;;;;;;5034851;28;20037;-81
2023/10/25 04:52:36;;;;;;;2.17;1.50;;;12.80;99.90;;;;;;5020370;28;20038;-78
2023/10/25 04:55:02;;;;;;;4.18;2.60;;;12.80;99.90;;;;;;5034602;28;20036;-79
2023/10/25 04:57:28;;;;;;;3.42;1.85;;;12.70;99.90;;;;;;5033478;28;20474;-81
2023/10/25 04:59:53;;;;;;;3.30;1.25;;;12.70;99.90;;;;;;5033917;28;20032;-80
2023/10/25 05:02:19;;;;;;;1.58;0.95;;;12.70;99.90;;;;;;5033472;28;20030;-77
2023/10/25 05:04:45;;;;;;;0.70;0.70;;;12.80;99.90;;;;;;5019135;28;20022;-79
2023/10/25 05:07:11;;;;;;;2.78;1.55;;;13.30;99.90;;;;;;5033613;28;20022;-80
2023/10/25 05:09:37;;;;;;;2.75;1.63;;;13.80;99.90;;;;;;5033610;28;20120;-79
2023/10/25 05:12:07;;;;;;;2.28;2.00;;;13.60;99.90;;;;;;5033225;28;20056;-80
2023/10/25 05:14:34;;;;;;;1.23;0.82;;;13.40;99.90;;;;;;5018193;28;20026;-82
2023/10/25 05:17:00;;;;;;;1.13;0.77;;;13.20;99.90;;;;;;5033155;28;20422;-79
2023/10/25 05:19:26;;;;;;;1.65;0.82;;;13.00;99.90;;;;;;5018766;28;20029;-79
2023/10/25 05:21:55;;;;;;;1.70;1.40;;;12.90;99.90;;;;;;5033805;28;20072;-78
2023/10/25 05:24:21;;;;;;;1.73;1.00;;;12.80;99.90;;;;;;5018345;28;20069;-79
2023/10/25 05:26:47;;;;;;;2.15;1.35;;;12.80;99.90;;;;;;5034241;28;20398;-79
2023/10/25 05:29:13;;;;;;;1.40;1.02;;;12.80;99.90;;;;;;5019553;28;20076;-82
2023/10/25 05:31:43;;;;;;;10.52;2.67;;;12.80;99.90;;;;;;5033959;28;20049;-79
2023/10/25 05:34:09;;;;;;;3.25;1.70;;;12.80;99.90;;;;;;5018282;28;20030;-80
2023/10/25 05:36:36;;;;;;;2.80;2.22;;;12.70;99.90;;;;;;5019059;28;20153;-81
2023/10/25 05:39:02;;;;;;;4.95;2.10;;;12.70;99.90;;;;;;5034078;28;20033;-81
2023/10/25 05:41:30;;;;;;;3.30;1.77;;;12.70;99.90;;;;;;5017130;28;20033;-78
2023/10/25 05:44:14;;;;;;;4.80;2.38;;;12.80;99.90;;;;;;5016903;28;20125;-80
2023/10/25 05:46:40;;;;;;;2.35;1.70;;;12.70;99.90;;;;;;5018405;28;20041;-79
2023/10/25 05:49:06;;;;;;;2.25;1.88;;;12.70;99.90;;;;;;5018996;28;20506;-80
2023/10/25 05:51:32;;;;;;;2.92;2.00;;;12.70;99.90;;;;;;5019394;28;20073;-81
2023/10/25 05:54:01;;;;;;;5.85;4.15;;;12.70;99.90;;;;;;5019112;28;20018;-80
2023/10/25 05:56:28;;;;;;;8.98;2.30;;;12.70;99.90;;;;;;5034583;28;20110;-80
2023/10/25 05:58:54;;;;;;;7.90;4.00;;;12.70;99.90;;;;;;5019838;28;20110;-81
2023/10/25 06:01:27;;;;;;;9.50;4.18;;;12.70;99.90;;;;;;5033953;28;20033;-80
2023/10/25 06:03:56;;;;;;;5.00;2.83;;;12.70;99.90;;;;;;5033643;28;20022;-80
2023/10/25 06:06:25;;;;;;;2.70;2.13;;;12.70;99.90;;;;;;5019203;28;20072;-80
2023/10/25 06:08:50;;;;;;;3.95;2.42;;;12.80;99.90;;;;;;5018477;28;20101;-80
2023/10/25 06:11:16;;;;;;;2.97;1.80;;;12.70;99.90;;;;;;5018742;28;20759;-79
2023/10/25 06:13:42;;;;;;;5.40;1.95;;;12.70;99.90;;;;;;5034767;28;20044;-81
2023/10/25 06:16:08;;;;;;;6.05;2.05;;;12.80;99.90;;;;;;5020830;28;20022;-81
2023/10/25 06:18:33;;;;;;;4.78;2.05;;;12.90;99.90;;;;;;5019946;28;20022;-81
2023/10/25 06:20:59;;;;;;;3.38;1.83;;;12.90;99.90;;;;;;5034461;28;20098;-79
2023/10/25 06:23:25;;;;;;;2.17;1.98;;;12.90;99.90;;;;;;5019303;28;20030;-81
2023/10/25 06:25:50;;;;;;;2.22;1.70;;;12.90;99.90;;;;;;5019288;28;20026;-80
2023/10/25 06:28:16;;;;;;;2.22;1.80;;;13.00;99.90;;;;;;5034380;28;20026;-80
2023/10/25 06:30:41;;;;;;;2.53;1.90;;;12.90;99.90;;;;;;5019345;28;20030;-79
2023/10/25 06:33:07;;;;;;;3.58;1.92;;;13.00;99.90;;;;;;5017441;28;20026;-81
2023/10/25 06:35:33;;;;;;;3.58;1.60;;;12.90;99.90;;;;;;5033339;28;20053;-81
2023/10/25 06:37:59;;;;;;;4.38;2.28;;;13.00;99.90;;;;;;5018573;28;20482;-81
2023/10/25 06:40:25;;;;;;;3.83;1.42;;;13.00;99.90;;;;;;5016903;28;20030;-80
2023/10/25 06:42:52;;;;;;;4.05;2.20;;;13.10;99.90;;;;;;5016991;28;20036;-79
2023/10/25 06:45:18;;;;;;;2.42;1.83;;;13.10;99.90;;;;;;5016248;28;20025;-79
2023/10/25 06:47:45;;;;;;;1.48;1.38;;;13.20;99.90;;;;;;5017319;28;20030;-81
2023/10/25 06:50:11;;;;;;;1.98;1.63;;;13.30;99.90;;;;;;5033118;28;20026;-81
2023/10/25 06:52:38;;;;;;;5.38;1.77;;;13.40;99.90;;;;;;5032853;28;20041;-79
2023/10/25 06:55:04;;;;;;;2.35;1.30;;;13.30;99.90;;;;;;5032154;28;20156;-80
2023/10/25 06:57:30;;;;;;;4.18;1.20;;;13.40;99.90;;;;;;5017801;28;20033;-79
2023/10/25 06:59:55;;;;;;;1.15;1.05;;;13.50;99.90;;;;;;5017317;28;20018;-80
2023/10/25 07:02:41;;;;;;;1.60;0.88;;;13.50;99.90;;;;;;5018198;28;20018;-79
2023/10/25 07:05:13;;;;;;;0.88;0.88;;;13.50;99.90;;;;;;5017013;28;20492;-81
2023/10/25 07:07:40;;;;;;;4.03;1.75;;;13.60;99.90;;;;;;5017219;28;20025;-79
2023/10/25 07:10:08;;;;;;;2.05;1.00;;;13.60;99.90;;;;;;5032917;28;20050;-81
2023/10/25 07:12:34;;;;;;;3.65;1.50;;;13.60;99.90;;;;;;5018125;28;20029;-79
2023/10/25 07:14:59;;;;;;;2.45;1.58;;;13.50;99.90;;;;;;5031632;28;20049;-79
2023/10/25 07:17:27;;;;;;;11.48;3.20;;;13.50;99.90;;;;;;5016593;28;20034;-79
2023/10/25 07:19:53;;;;;;;6.85;3.45;;;13.50;99.90;;;;;;5019366;28;20026;-80
2023/10/25 07:22:19;;;;;;;3.85;1.25;;;13.50;99.90;;;;;;5020166;28;20042;-79
2023/10/25 07:24:45;;;;;;;6.45;1.58;;;13.50;99.90;;;;;;5020463;28;20030;-79
2023/10/25 07:27:11;;;;;;;5.85;1.10;;;13.60;99.90;;;;;;5020426;28;20141;-80
2023/10/25 07:29:36;;;;;;;2.15;1.20;;;13.60;99.90;;;;;;5034763;28;20085;-81
2023/10/25 07:32:03;;;;;;;1.38;1.15;;;13.60;99.90;;;;;;5018953;28;20030;-80
2023/10/25 07:34:29;;;;;;;2.65;1.30;;;13.90;99.90;;;;;;5019129;28;20417;-79
2023/10/25 07:36:55;;;;;;;4.30;1.90;;;14.80;99.90;;;;;;5034340;28;20034;-82
2023/10/25 07:39:21;;;;;;;2.80;2.05;;;15.20;99.90;;;;;;5034182;28;20033;-80
2023/10/25 07:41:47;;;;;;;2.72;2.53;;;15.50;99.90;;;;;;5019275;28;20026;-82
2023/10/25 07:44:12;;;;;;;2.33;1.55;;;15.60;99.90;;;;;;5019653;28;20492;-80
2023/10/25 07:46:38;;;;;;;2.13;1.50;;;15.60;99.90;;;;;;5018257;28;20026;-80
2023/10/25 07:49:04;;;;;;;2.35;1.20;;;15.80;99.90;;;;;;5018395;28;20096;-79
2023/10/25 07:51:29;;;;;;;1.67;1.05;;;16.10;99.90;;;;;;5033765;28;20025;-80
2023/10/25 07:53:55;;;;;;;1.67;1.08;;;16.10;99.90;;;;;;5018994;28;20065;-80
2023/10/25 07:56:20;;;;;;;1.77;1.20;;;16.30;99.90;;;;;;5017042;28;20022;-81
2023/10/25 07:58:46;;;;;;;2.20;1.27;;;16.50;99.90;;;;;;5020485;28;20033;-79
2023/10/25 08:01:12;;;;;;;1.60;1.02;;;16.40;99.90;;;;;;5017998;28;20037;-77
2023/10/25 08:03:38;;;;;;;2.88;1.30;;;16.60;99.90;;;;;;5025699;28;20046;-79
2023/10/25 08:06:05;;;;;;;5.85;1.58;;;16.80;99.90;;;;;;5031044;28;20064;-79
2023/10/25 08:08:32;;;;;;;3.70;2.03;;;16.70;99.90;;;;;;5035939;28;20033;-81
2023/10/25 08:11:01;;;;;;;4.43;1.98;;;16.80;99.90;;;;;;5036077;28;20038;-79
2023/10/25 08:13:27;;;;;;;1.75;0.85;;;16.60;99.90;;;;;;5036398;28;20481;-80
2023/10/25 08:16:02;;;;;;;1.45;1.25;;;16.60;99.90;;;;;;5036102;28;20048;-77
2023/10/25 08:18:29;;;;;;;3.55;1.52;;;16.60;99.90;;;;;;5034117;28;20025;-77
2023/10/25 08:20:56;;;;;;;3.28;1.15;;;16.70;99.90;;;;;;5034754;28;20137;-77
2023/10/25 08:23:22;;;;;;;1.67;1.42;;;16.60;99.90;;;;;;5034707;28;20026;-76
2023/10/25 08:25:48;;;;;;;2.17;2.08;;;16.60;99.90;;;;;;5034598;28;20025;-76
2023/10/25 08:28:14;;;;;;;2.58;1.88;;;16.60;99.90;;;;;;5033507;28;20052;-77
2023/10/25 08:30:40;;;;;;;7.53;2.20;;;16.50;99.90;;;;;;5036061;28;20029;-77
2023/10/25 08:33:06;;;;;;;2.30;1.00;;;16.40;99.90;;;;;;5033209;28;20032;-76
2023/10/25 08:35:31;;;;;;;1.05;0.68;;;16.30;99.90;;;;;;5033815;28;20116;-76
2023/10/25 08:37:57;;;;;;;0.95;0.75;;;16.20;99.90;;;;;;5035914;28;20032;-77
2023/10/25 08:40:26;;;;;;;4.05;1.02;;;16.30;99.90;;;;;;5034219;28;20485;-76
2023/10/25 08:42:51;;;;;;;4.20;0.80;;;16.40;99.90;;;;;;5035339;28;20021;-78
2023/10/25 08:45:17;;;;;;;0.43;0.43;;;16.30;99.90;;;;;;5035064;28;20022;-78
2023/10/25 08:47:43;;;;;;;1.38;0.90;;;16.50;99.90;;;;;;5036202;28;20029;-78
2023/10/25 08:50:10;;;;;;;0.50;0.50;;;16.50;99.90;;;;;;5038361;28;20055;-78
2023/10/25 08:52:39;;;;;;;0.73;0.70;;;16.50;99.90;;;;;;5036763;28;20034;-77
2023/10/25 08:55:09;;;;;;;1.90;0.57;;;16.60;99.90;;;;;;5034744;28;20451;-77
2023/10/25 08:57:37;;;;;;;0.80;0.80;;;16.70;99.90;;;;;;5034500;28;20033;-76
2023/10/25 09:00:07;;;;;;;1.10;0.82;;;16.40;99.90;;;;;;5033227;28;20025;-75
2023/10/25 09:02:38;;;;;;;1.48;0.73;;;16.60;99.90;;;;;;5033348;28;20080;-80
2023/10/25 09:05:08;;;;;;;0.63;0.63;;;16.60;99.90;;;;;;5034395;28;20631;-80
2023/10/25 09:07:35;;;;;;;0.60;0.60;;;16.50;99.90;;;;;;5034882;28;20572;-77
2023/10/25 09:10:11;;;;;;;2.65;1.35;;;16.60;99.90;;;;;;5037050;28;20080;-78
2023/10/25 09:12:37;;;;;;;0.43;0.43;;;16.70;99.90;;;;;;5034767;28;20501;-77
2023/10/25 09:15:03;;;;;;;1.00;1.00;;;16.70;99.90;;;;;;5036344;28;20040;-82
2023/10/25 09:17:31;;;;;;;0.70;0.70;;;16.60;99.90;;;;;;5039603;28;20048;-80
2023/10/25 09:19:56;;;;;;;1.10;0.82;;;16.50;99.90;;;;;;5037726;28;20035;-79
2023/10/25 09:22:27;;;;;;;1.38;0.82;;;16.50;99.90;;;;;;5037957;28;20022;-78
2023/10/25 09:25:00;;;;;;;2.95;1.10;;;16.60;99.90;;;;;;5035888;28;20033;-78
2023/10/25 09:27:27;;;;;;;2.83;0.88;;;16.50;99.90;;;;;;5037028;28;20026;-77
2023/10/25 09:30:09;;;;;;;1.60;1.20;;;16.50;99.90;;;;;;5036133;28;20032;-77
2023/10/25 09:32:36;;;;;;;1.50;0.82;;;16.50;99.90;;;;;;5034028;28;20035;-78
2023/10/25 09:35:03;;;;;;;0.57;0.52;;;16.40;99.90;;;;;;5034941;28;20021;-79
2023/10/25 09:37:28;;;;;;;2.22;1.55;;;16.30;99.90;;;;;;5035220;28;20056;-78
2023/10/25 09:39:54;;;;;;;1.92;0.70;;;16.30;99.90;;;;;;5033007;28;20060;-78
2023/10/25 09:42:26;;;;;;;1.67;0.70;;;16.30;99.90;;;;;;5034636;28;20029;-76
2023/10/25 09:45:01;;;;;;;0.75;0.73;;;16.30;99.90;;;;;;5031734;28;20052;-79
2023/10/25 09:47:38;;;;;;;4.13;0.70;;;16.30;99.90;;;;;;5034545;28;20113;-77
2023/10/25 09:50:14;;;;;;;0.77;0.50;;;16.30;99.90;;;;;;5026914;28;20045;-77
2023/10/25 09:52:44;;;;;;;3.63;0.80;;;16.10;99.90;;;;;;5015098;28;20032;-77
2023/10/25 09:55:23;;;;;;;1.08;1.00;;;16.10;99.90;;;;;;5014900;28;20117;-76
2023/10/25 09:57:53;;;;;;;1.02;0.82;;;16.00;99.90;;;;;;5014154;28;20029;-77
2023/10/25 10:00:19;;;;;;;1.25;0.98;;;16.00;99.90;;;;;;5013681;28;20125;-80
2023/10/25 10:02:53;;;;;;;1.77;1.17;;;16.00;99.90;;;;;;5013021;28;20057;-78
2023/10/25 10:05:22;;;;;;;0.70;0.70;;;16.10;99.90;;;;;;5015378;28;20026;-79
2023/10/25 10:07:54;;;;;;;0.40;0.40;;;16.10;99.90;;;;;;5019452;28;20030;-81
2023/10/25 10:10:54;;;;;;;5.10;1.42;;;16.10;99.90;;;;;;5021737;28;20040;-79
2023/10/25 10:13:20;;;;;;;1.15;1.02;;;16.10;99.90;;;;;;4999511;28;20034;-79
2023/10/25 10:16:04;;;;;;;0.95;0.77;;;16.10;99.90;;;;;;5035005;28;20033;-80
2023/10/25 10:18:35;;;;;;;1.20;0.82;;;16.10;99.90;;;;;;5020506;28;20018;-78
2023/10/25 10:21:08;;;;;;;0.95;0.75;;;16.10;99.90;;;;;;5035830;28;20026;-79
2023/10/25 10:23:39;;;;;;;0.70;0.70;;;16.10;99.90;;;;;;5016690;28;20036;-79
2023/10/25 10:26:07;;;;;;;0.73;0.60;;;16.00;99.90;;;;;;5028941;28;20022;-76
2023/10/25 10:28:38;;;;;;;0.50;0.50;;;16.00;99.90;;;;;;5014409;28;20044;-77
2023/10/25 10:31:05;;;;;;;1.85;0.90;;;15.90;99.90;;;;;;5012988;28;20401;-78
2023/10/25 10:33:35;;;;;;;3.35;1.58;;;16.00;99.90;;;;;;5014928;28;20026;-80
2023/10/25 10:36:04;;;;;;;4.43;1.08;;;16.10;99.90;;;;;;5032552;28;20030;-76
2023/10/25 10:39:08;;;;;;;1.00;0.90;;;16.20;99.90;;;;;;5017675;28;20029;-80
2023/10/25 10:41:34;;;;;;;1.25;0.90;;;16.30;99.90;;;;;;5017531;28;20044;-77
2023/10/25 10:44:00;;;;;;;1.88;0.63;;;16.40;99.90;;;;;;5031506;28;20026;-79
2023/10/25 10:46:30;;;;;;;0.73;0.70;;;16.30;99.90;;;;;;5031804;28;20025;-78
2023/10/25 10:49:01;;;;;;;1.60;0.80;;;16.20;99.90;;;;;;5017966;28;20037;-78
2023/10/25 10:51:27;;;;;;;3.42;0.70;;;16.10;99.90;;;;;;5017361;28;20033;-79
2023/10/25 10:53:53;;;;;;;1.15;1.05;;;16.10;99.90;;;;;;5016413;28;20036;-78
2023/10/25 10:56:19;;;;;;;1.33;0.65;;;16.10;99.90;;;;;;5022840;28;20034;-80
2023/10/25 10:58:45;;;;;;;0.47;0.47;;;16.10;99.90;;;;;;5036405;28;20030;-79
2023/10/25 11:01:11;;;;;;;0.70;0.55;;;15.90;99.90;;;;;;5020570;28;20084;-79
2023/10/25 11:03:37;;;;;;;0.93;0.47;;;15.80;99.90;;;;;;5035313;28;20049;-79
2023/10/25 11:06:04;;;;;;;2.00;0.75;;;15.70;99.90;;;;;;5020413;28;20029;-78
2023/10/25 11:08:32;;;;;;;1.48;0.63;;;15.70;99.90;;;;;;5021333;28;20026;-78
2023/10/25 11:10:58;;;;;;;0.80;0.52;;;15.70;99.90;;;;;;5022678;28;20026;-80
2023/10/25 11:13:24;;;;;;;3.50;0.68;;;15.80;99.90;;;;;;5022433;28;20040;-81
2023/10/25 11:16:06;;;;;;;0.70;0.40;;;15.70;99.90;;;;;;5038513;28;20026;-78
2023/10/25 11:18:32;;;;;;;0.73;0.70;;;15.70;99.90;;;;;;5022051;28;20030;-79
2023/10/25 11:21:00;;;;;;;0.40;0.40;;;15.70;99.90;;;;;;5021149;28;20036;-78
2023/10/25 11:23:25;;;;;;;1.60;1.05;;;15.70;99.90;;;;;;5021323;28;20505;-80
2023/10/25 11:25:52;;;;;;;3.28;2.97;;;15.70;99.90;;;;;;5034325;28;20125;-77
2023/10/25 11:28:20;;;;;;;9.57;6.30;;;15.80;99.90;;;;;;5019927;28;20045;-81
2023/10/25 11:30:48;;;;;;;3.22;2.92;;;15.80;99.90;;;;;;5019133;28;20048;-77
2023/10/25 11:33:15;;;;;;;1.00;1.00;;;16.00;99.90;;;;;;5032210;28;20045;-77
2023/10/25 11:35:42;;;;;;;1.02;1.02;;;16.00;99.90;;;;;;5033319;28;20474;-78
2023/10/25 11:38:09;;;;;;;1.20;1.20;;;16.00;99.90;;;;;;5017557;28;20033;-76
2023/10/25 11:40:45;;;;;;;1.05;0.90;;;16.30;99.90;;;;;;5017439;28;20425;-77
2023/10/25 11:43:11;;;;;;;;;;;16.60;99.90;;;;;;5018265;28;20022;-77
2023/10/25 11:45:37;;;;;;;;;;;16.90;99.90;;;;;;5028682;28;20043;-81
2023/10/25 11:48:04;;;;;;;0.50;0.45;;;17.00;99.90;;;;;;5036339;28;20253;-78
2023/10/25 11:50:30;;;;;;;0.40;0.40;;;17.10;99.90;;;;;;5037674;28;20105;-78
2023/10/25 11:52:56;;;;;;;1.20;0.60;;;17.10;99.90;;;;;;5037698;28;20048;-77
2023/10/25 11:55:21;;;;;;;0.57;0.57;;;17.20;99.90;;;;;;5035122;28;20087;-77
2023/10/25 11:57:47;;;;;;;2.95;0.82;;;17.20;99.90;;;;;;5035903;28;20034;-78
2023/10/25 12:00:13;;;;;;;1.20;0.60;;;17.30;99.90;;;;;;5034843;28;20026;-77
2023/10/25 12:02:39;;;;;;;2.75;0.43;;;17.40;99.90;;;;;;5034833;28;20112;-76
2023/10/25 12:05:05;;;;;;;1.90;0.75;;;17.30;99.90;;;;;;5033804;28;20021;-77
2023/10/25 12:07:31;;;;;;;1.15;0.82;;;17.40;99.90;;;;;;5033676;28;20465;-76
2023/10/25 12:09:57;;;;;;;1.15;0.50;;;17.40;99.90;;;;;;5033424;28;20032;-77
2023/10/25 12:12:24;;;;;;;0.80;0.70;;;17.40;99.90;;;;;;5034857;28;20143;-77
2023/10/25 12:14:51;;;;;;;0.50;0.40;;;17.40;99.90;;;;;;5034374;28;20029;-79
2023/10/25 12:17:17;;;;;;;0.80;0.80;;;17.40;99.90;;;;;;5034803;28;20032;-78
2023/10/25 12:19:42;;;;;;;1.13;1.08;;;17.50;99.90;;;;;;5034546;28;20104;-76
2023/10/25 12:22:10;;;;;;;2.60;1.17;;;17.40;99.90;;;;;;5032793;28;20497;-77
2023/10/25 12:24:37;;;;;;;1.40;1.33;;;17.60;99.90;;;;;;5034438;28;20033;-78
2023/10/25 12:27:04;;;;;;;0.98;0.65;;;17.60;99.90;;;;;;5034850;28;20079;-77
2023/10/25 12:29:30;;;;;;;0.30;0.30;;;17.60;99.90;;;;;;5034923;28;20025;-77
2023/10/25 12:31:55;;;;;;;1.08;0.93;;;17.40;99.90;;;;;;5034863;28;20021;-76
2023/10/25 12:34:22;;;;;;;3.92;2.10;;;17.40;99.90;;;;;;5033914;28;20028;-80
2023/10/25 12:36:49;;;;;;;2.53;1.80;;;17.40;99.90;;;;;;5035158;28;20045;-78
2023/10/25 12:39:16;;;;;;;1.42;1.30;;;17.40;99.90;;;;;;5035153;28;20052;-75
2023/10/25 12:41:42;;;;;;;2.15;1.30;;;17.40;99.90;;;;;;5034430;28;20037;-78
2023/10/25 12:44:12;;;;;;;1.80;0.93;;;17.40;99.90;;;;;;5035099;28;20397;-79
2023/10/25 12:46:42;;;;;;;0.65;0.50;;;17.40;99.90;;;;;;5035085;28;20022;-77
2023/10/25 12:49:09;;;;;;;0.63;0.63;;;17.40;99.90;;;;;;5033912;28;20033;-77